Time;durP1;ratioP1;P1;durP2;ratioP2;P2;SDS_P1;SDS_P2;PMS_P1;PMS_P2;Temp;Humidity;BMP_temperature;BMP_pressure;BME280_temperature;BME280_humidity;BME280_pressure;Samples;Min_cycle;Max_cycle;Signal;HPM_P1;HPM_P2
2022/05/11 00:02:07;;;;;;;10.27;7.60;;;20.70;68.90;;;-142.21;100.00;112049.66;5051035;28;20198;-79
2022/05/11 00:04:34;;;;;;;7.70;7.00;;;20.60;69.20;;;-142.21;100.00;112049.66;5051429;28;20206;-79
2022/05/11 00:07:02;;;;;;;8.60;7.80;;;20.60;69.20;;;-142.21;100.00;112049.66;5050764;28;20222;-79
2022/05/11 00:09:30;;;;;;;8.90;7.43;;;20.60;69.10;;;-142.21;100.00;112049.66;5050706;28;20280;-79
2022/05/11 00:11:57;;;;;;;8.00;7.20;;;20.60;69.50;;;-142.21;100.00;112049.66;5050612;28;20246;-79
2022/05/11 00:14:25;;;;;;;8.40;7.40;;;20.50;69.50;;;-142.21;100.00;112049.66;5051120;28;20206;-78
2022/05/11 00:16:52;;;;;;;8.30;7.60;;;20.50;69.30;;;-142.21;100.00;112049.66;5050665;28;20284;-79
2022/05/11 00:19:21;;;;;;;7.93;7.23;;;20.50;70.00;;;-142.21;100.00;112049.66;5051101;28;20296;-79
2022/05/11 00:21:48;;;;;;;10.43;8.03;;;20.40;70.30;;;-142.21;100.00;112049.66;5050562;28;20221;-79
2022/05/11 00:24:15;;;;;;;8.67;7.87;;;20.40;70.30;;;-142.21;100.00;112049.66;5045649;28;20202;-79
2022/05/11 00:26:43;;;;;;;8.43;7.73;;;20.30;70.10;;;-142.21;100.00;112049.66;5053065;28;20563;-80
2022/05/11 00:29:13;;;;;;;8.07;7.37;;;20.30;70.10;;;-142.21;100.00;112049.66;5053739;28;20293;-80
2022/05/11 00:31:41;;;;;;;8.33;7.40;;;20.30;69.80;;;-142.21;100.00;112049.66;5054744;28;20206;-79
2022/05/11 00:34:08;;;;;;;9.57;7.33;;;20.30;70.00;;;-142.21;100.00;112049.66;5054163;28;20784;-79
2022/05/11 00:36:37;;;;;;;8.90;8.00;;;20.30;69.90;;;-142.21;100.00;112049.66;5054502;28;20539;-80
2022/05/11 00:39:04;;;;;;;8.10;7.30;;;20.30;69.90;;;-142.21;100.00;112049.66;5053541;28;20822;-79
2022/05/11 00:41:32;;;;;;;8.67;7.90;;;20.30;69.70;;;-142.21;100.00;112049.66;5053088;28;20807;-79
2022/05/11 00:44:04;;;;;;;8.43;7.63;;;20.30;69.80;;;-142.21;100.00;112049.66;5053953;28;20285;-79
2022/05/11 00:46:42;;;;;;;8.57;7.70;;;20.30;70.00;;;-142.21;100.00;112049.66;5054299;28;20210;-80
2022/05/11 00:49:35;;;;;;;8.70;7.80;;;20.20;70.20;;;-142.21;100.00;112049.66;5052818;28;20194;-80
2022/05/11 00:52:09;;;;;;;8.53;7.77;;;20.20;70.30;;;-142.21;100.00;112049.66;5053619;28;20479;-80
2022/05/11 00:54:43;;;;;;;9.17;8.23;;;20.20;70.10;;;-142.21;100.00;112049.66;5054190;28;20213;-79
2022/05/11 00:57:21;;;;;;;8.10;7.30;;;20.20;70.10;;;-142.21;100.00;112049.66;5053879;28;20467;-79
2022/05/11 00:59:53;;;;;;;9.47;7.60;;;20.20;70.40;;;-142.21;100.00;112049.66;5053689;28;20194;-78
2022/05/11 01:02:23;;;;;;;8.80;8.00;;;20.10;70.20;;;-142.21;100.00;112049.66;5053667;28;20285;-78
2022/05/11 01:04:57;;;;;;;7.67;6.93;;;20.10;70.30;;;-142.21;100.00;112049.66;5052769;28;20208;-79
2022/05/11 01:07:27;;;;;;;8.10;7.30;;;20.10;70.70;;;-142.21;100.00;112049.66;5039390;28;20628;-79
2022/05/11 01:09:54;;;;;;;9.73;7.53;;;20.10;70.30;;;-142.21;100.00;112049.66;5053301;28;20527;-78
2022/05/11 01:12:30;;;;;;;7.80;7.10;;;20.00;70.20;;;-142.21;100.00;112049.66;5053318;28;20293;-79
2022/05/11 01:15:04;;;;;;;7.83;7.13;;;20.00;70.60;;;-142.21;100.00;112049.66;5053400;28;20197;-75
2022/05/11 01:17:33;;;;;;;8.53;7.73;;;20.00;70.60;;;-142.21;100.00;112049.66;5052751;28;20189;-79
2022/05/11 01:20:04;;;;;;;8.60;7.80;;;20.00;70.70;;;-142.21;100.00;112049.66;5052782;28;20455;-79
2022/05/11 01:22:40;;;;;;;11.63;7.00;;;19.90;70.20;;;-142.21;100.00;112049.66;5034075;28;20227;-78
2022/05/11 01:25:12;;;;;;;9.00;7.90;;;19.90;70.40;;;-142.21;100.00;112049.66;5046958;28;20967;-80
2022/05/11 01:27:42;;;;;;;8.13;7.27;;;19.80;70.80;;;-142.21;100.00;112049.66;5052228;28;20251;-80
2022/05/11 01:30:15;;;;;;;8.80;8.00;;;19.80;70.70;;;-142.21;100.00;112049.66;5053156;28;20212;-79
2022/05/11 01:32:44;;;;;;;9.00;7.37;;;19.80;70.60;;;-142.21;100.00;112049.66;5052915;28;20432;-80
2022/05/11 01:35:40;;;;;;;8.47;7.57;;;19.70;70.90;;;-142.21;100.00;112049.66;5051941;28;20952;-80
2022/05/11 01:38:38;;;;;;;8.03;7.33;;;19.70;71.10;;;-142.21;100.00;112049.66;5052345;28;20309;-79
2022/05/11 01:41:08;;;;;;;8.40;7.63;;;19.70;71.80;;;-142.21;100.00;112049.66;5033303;28;20807;-79
2022/05/11 01:43:39;;;;;;;8.77;7.97;;;19.60;71.10;;;-142.21;100.00;112049.66;5052457;28;20221;-79
2022/05/11 01:46:09;;;;;;;7.87;7.17;;;19.60;70.90;;;-142.21;100.00;112049.66;5052569;28;20571;-80
2022/05/11 01:48:37;;;;;;;8.90;8.00;;;19.60;70.70;;;-142.21;100.00;112049.66;5052792;28;20200;-79
2022/05/11 01:51:05;;;;;;;9.37;7.57;;;19.60;71.70;;;-142.21;100.00;112049.66;5052318;28;20251;-79
2022/05/11 01:53:32;;;;;;;8.93;8.03;;;19.60;70.70;;;-142.21;100.00;112049.66;5052258;28;20206;-80
2022/05/11 01:55:59;;;;;;;9.50;8.00;;;19.50;70.80;;;-142.21;100.00;112049.66;5053879;28;21030;-79
2022/05/11 01:58:28;;;;;;;8.50;7.70;;;19.50;71.70;;;-142.21;100.00;112049.66;5054997;28;20201;-80
2022/05/11 02:00:55;;;;;;;7.60;6.80;;;19.50;71.50;;;-142.21;100.00;112049.66;5052486;28;20456;-79
2022/05/11 02:03:22;;;;;;;8.93;8.03;;;19.50;71.30;;;-142.21;100.00;112049.66;5053112;28;20475;-80
2022/05/11 02:08:38;;;;;;;9.23;7.73;;;19.40;71.10;;;-142.21;100.00;112049.66;5052272;28;20797;-78
2022/05/11 02:11:06;;;;;;;7.83;7.00;;;19.40;71.20;;;-142.21;100.00;112049.66;5051681;28;20466;-78
2022/05/11 02:13:35;;;;;;;8.53;7.73;;;19.30;71.00;;;-142.21;100.00;112049.66;5052630;28;20198;-80
2022/05/11 02:16:03;;;;;;;7.77;6.93;;;19.30;70.70;;;-142.21;100.00;112049.66;5052001;28;20535;-80
2022/05/11 02:18:31;;;;;;;7.60;6.90;;;19.40;71.30;;;-142.21;100.00;112049.66;5052564;28;20800;-80
2022/05/11 02:20:58;;;;;;;7.97;7.17;;;19.30;71.00;;;-142.21;100.00;112049.66;5051703;28;20449;-80
2022/05/11 02:23:27;;;;;;;8.83;7.57;;;19.30;71.10;;;-142.21;100.00;112049.66;5052618;28;20546;-80
2022/05/11 02:25:55;;;;;;;7.57;6.87;;;19.30;71.20;;;-142.21;100.00;112049.66;5052485;28;20452;-79
2022/05/11 02:28:24;;;;;;;7.50;6.80;;;19.20;71.50;;;-142.21;100.00;112049.66;5052169;28;20515;-79
2022/05/11 02:30:57;;;;;;;7.67;6.93;;;19.20;70.90;;;-142.21;100.00;112049.66;5051873;28;20491;-79
2022/05/11 02:33:25;;;;;;;7.67;6.87;;;19.10;71.00;;;-142.21;100.00;112049.66;5052364;28;20502;-78
2022/05/11 02:35:54;;;;;;;10.57;6.83;;;19.20;70.90;;;-142.21;100.00;112049.66;5052716;28;20479;-78
2022/05/11 02:38:26;;;;;;;8.67;7.10;;;19.10;70.90;;;-142.21;100.00;112049.66;5052657;28;20542;-80
2022/05/11 02:40:54;;;;;;;7.80;7.10;;;19.10;71.50;;;-142.21;100.00;112049.66;5051930;28;20480;-79
2022/05/11 02:43:21;;;;;;;7.13;6.43;;;19.00;71.30;;;-142.21;100.00;112049.66;5052219;28;20488;-80
2022/05/11 02:45:50;;;;;;;7.40;6.70;;;19.00;71.40;;;-142.21;100.00;112049.66;5051399;28;20516;-80
2022/05/11 02:48:23;;;;;;;9.20;7.27;;;19.00;71.30;;;-142.21;100.00;112049.66;5050824;28;20515;-80
2022/05/11 02:50:54;;;;;;;7.83;7.13;;;19.00;71.70;;;-142.21;100.00;112049.66;5051809;28;20528;-79
2022/05/11 02:53:24;;;;;;;7.57;6.87;;;19.00;71.50;;;-142.21;100.00;112049.66;5048291;28;20532;-78
2022/05/11 02:55:55;;;;;;;8.90;7.17;;;18.90;71.10;;;-142.21;100.00;112049.66;5052283;28;20540;-79
2022/05/11 02:58:25;;;;;;;7.03;6.33;;;18.90;71.40;;;-142.21;100.00;112049.66;5052272;28;20449;-77
2022/05/11 03:00:54;;;;;;;6.97;6.27;;;18.90;71.30;;;-142.21;100.00;112049.66;5051866;28;20440;-79
2022/05/11 03:03:23;;;;;;;7.90;7.10;;;18.90;71.80;;;-142.21;100.00;112049.66;5051094;28;21028;-80
2022/05/11 03:05:52;;;;;;;8.00;7.03;;;18.80;71.70;;;-142.21;100.00;112049.66;5032167;28;20452;-79
2022/05/11 03:08:20;;;;;;;10.57;8.10;;;18.90;71.50;;;-142.21;100.00;112049.66;5031883;28;20528;-80
2022/05/11 03:10:48;;;;;;;8.27;7.47;;;18.80;71.40;;;-142.21;100.00;112049.66;5031996;28;20540;-79
2022/05/11 03:13:19;;;;;;;9.00;7.00;;;18.80;71.30;;;-142.21;100.00;112049.66;5031485;28;20496;-80
2022/05/11 03:15:46;;;;;;;8.80;7.07;;;18.80;71.30;;;-142.21;100.00;112049.66;5033121;28;20438;-79
2022/05/11 03:18:13;;;;;;;7.83;7.00;;;18.90;70.90;;;-142.21;100.00;112049.66;5052309;28;20478;-75
2022/05/11 03:20:41;;;;;;;7.77;6.97;;;18.80;70.80;;;-142.21;100.00;112049.66;5054048;28;20449;-78
2022/05/11 03:23:09;;;;;;;8.57;7.57;;;18.90;70.60;;;-142.21;100.00;112049.66;5051301;28;20574;-79
2022/05/11 03:25:36;;;;;;;8.67;7.73;;;18.90;70.50;;;-142.21;100.00;112049.66;5045899;28;20525;-78
2022/05/11 03:28:04;;;;;;;7.93;7.13;;;18.70;70.30;;;-142.21;100.00;112049.66;5050848;28;20589;-76
2022/05/11 03:30:31;;;;;;;9.13;7.73;;;18.70;70.70;;;-142.21;100.00;112049.66;5051498;28;20536;-78
2022/05/11 03:35:47;;;;;;;7.67;6.97;;;18.60;70.60;;;-142.21;100.00;112049.66;5051779;28;20791;-80
2022/05/11 03:38:14;;;;;;;8.87;8.07;;;18.60;70.90;;;-142.21;100.00;112049.66;5050701;28;20496;-79
2022/05/11 03:40:41;;;;;;;7.53;6.83;;;18.60;71.30;;;-142.21;100.00;112049.66;5051500;28;20440;-78
2022/05/11 03:43:09;;;;;;;8.50;7.70;;;18.60;71.40;;;-142.21;100.00;112049.66;5050717;28;20476;-79
2022/05/11 03:45:36;;;;;;;8.17;7.37;;;18.60;71.10;;;-142.21;100.00;112049.66;5031274;28;20488;-79
2022/05/11 03:48:04;;;;;;;8.33;7.47;;;18.60;71.10;;;-142.21;100.00;112049.66;5043345;28;20480;-79
2022/05/11 03:50:32;;;;;;;8.00;7.20;;;18.60;71.60;;;-142.21;100.00;112049.66;5051281;28;20445;-79
2022/05/11 03:53:01;;;;;;;7.43;6.73;;;18.50;71.30;;;-142.21;100.00;112049.66;5051201;28;20456;-78
2022/05/11 03:55:28;;;;;;;8.47;7.67;;;18.50;71.10;;;-142.21;100.00;112049.66;5053176;28;20456;-78
2022/05/11 03:57:56;;;;;;;8.07;7.27;;;18.50;71.10;;;-142.21;100.00;112049.66;5060712;28;20522;-76
2022/05/11 04:00:26;;;;;;;8.13;7.20;;;18.40;71.00;;;-142.21;100.00;112049.66;5060731;28;20486;-79
2022/05/11 04:02:58;;;;;;;7.70;6.53;;;18.40;71.50;;;-142.21;100.00;112049.66;5064253;28;20940;-78
2022/05/11 04:05:26;;;;;;;10.40;7.00;;;18.40;71.00;;;-142.21;100.00;112049.66;5065081;28;20845;-76
2022/05/11 04:07:53;;;;;;;8.20;7.37;;;18.40;71.00;;;-142.21;100.00;112049.66;5064451;28;20514;-76
2022/05/11 04:10:22;;;;;;;11.03;7.37;;;18.40;71.00;;;-142.21;100.00;112049.66;5060110;28;20796;-78
2022/05/11 04:12:51;;;;;;;7.77;7.07;;;18.40;70.90;;;-142.21;100.00;112049.66;5054623;28;20453;-75
2022/05/11 04:15:19;;;;;;;7.80;7.00;;;18.40;71.20;;;-142.21;100.00;112049.66;5052645;28;20450;-75
2022/05/11 04:17:46;;;;;;;7.43;6.57;;;18.40;71.10;;;-142.21;100.00;112049.66;5070402;28;20448;-75
2022/05/11 04:20:18;;;;;;;7.70;6.90;;;18.40;71.40;;;-142.21;100.00;112049.66;5054120;28;20536;-75
2022/05/11 04:22:45;;;;;;;8.87;7.10;;;18.40;71.60;;;-142.21;100.00;112049.66;5054898;28;20451;-76
2022/05/11 04:25:15;;;;;;;7.43;6.73;;;18.30;71.60;;;-142.21;100.00;112049.66;5053878;28;20553;-75
2022/05/11 04:27:44;;;;;;;8.80;7.33;;;18.40;71.60;;;-142.21;100.00;112049.66;5054596;28;20844;-77
2022/05/11 04:30:20;;;;;;;8.17;6.87;;;18.30;72.30;;;-142.21;100.00;112049.66;5053776;28;20809;-75
2022/05/11 04:32:48;;;;;;;8.50;6.90;;;18.30;72.00;;;-142.21;100.00;112049.66;5055610;28;20440;-75
2022/05/11 04:35:21;;;;;;;9.03;6.73;;;18.30;71.90;;;-142.21;100.00;112049.66;5053670;28;20472;-75
2022/05/11 04:37:49;;;;;;;15.00;8.20;;;18.30;72.20;;;-142.21;100.00;112049.66;5054433;28;21027;-76
2022/05/11 04:40:16;;;;;;;7.53;6.83;;;18.40;72.10;;;-142.21;100.00;112049.66;5053959;28;20209;-77
2022/05/11 04:42:45;;;;;;;7.97;7.17;;;18.40;71.70;;;-142.21;100.00;112049.66;5054686;28;20444;-76
2022/05/11 04:45:13;;;;;;;8.30;7.10;;;18.40;72.20;;;-142.21;100.00;112049.66;5052896;28;20541;-75
2022/05/11 04:47:40;;;;;;;8.13;7.30;;;18.30;72.20;;;-142.21;100.00;112049.66;5054284;28;20817;-77
2022/05/11 04:50:09;;;;;;;7.83;7.13;;;18.40;72.30;;;-142.21;100.00;112049.66;5054008;28;20527;-76
2022/05/11 04:52:37;;;;;;;7.80;7.00;;;18.40;72.30;;;-142.21;100.00;112049.66;5054024;28;20964;-74
2022/05/11 04:55:06;;;;;;;7.53;6.83;;;18.50;72.40;;;-142.21;100.00;112049.66;5053888;28;20488;-75
2022/05/11 04:57:34;;;;;;;7.17;6.47;;;18.50;72.70;;;-142.21;100.00;112049.66;5054482;28;20507;-74
2022/05/11 05:00:10;;;;;;;7.83;6.80;;;18.50;72.40;;;-142.21;100.00;112049.66;5053391;28;20498;-76
2022/05/11 05:02:37;;;;;;;7.10;6.40;;;18.60;72.30;;;-142.21;100.00;112049.66;5054682;28;20498;-75
2022/05/11 05:05:08;;;;;;;7.87;7.17;;;18.60;71.60;;;-142.21;100.00;112049.66;5053586;28;20460;-77
2022/05/11 05:07:36;;;;;;;10.70;6.90;;;18.70;71.60;;;-142.21;100.00;112049.66;5058228;28;20580;-77
2022/05/11 05:10:04;;;;;;;7.87;6.47;;;18.70;71.30;;;-142.21;100.00;112049.66;5055854;28;20488;-79
2022/05/11 05:12:32;;;;;;;8.00;7.20;;;18.70;71.90;;;-142.21;100.00;112049.66;5053476;28;20471;-77
2022/05/11 05:14:59;;;;;;;7.67;6.97;;;18.80;72.30;;;-142.21;100.00;112049.66;5054139;28;20703;-80
2022/05/11 05:17:28;;;;;;;6.53;5.93;;;18.90;71.90;;;-142.21;100.00;112049.66;5049938;28;20547;-80
2022/05/11 05:19:55;;;;;;;7.90;7.20;;;19.00;73.30;;;-142.21;100.00;112049.66;5053878;28;21038;-78
2022/05/11 05:22:23;;;;;;;6.80;6.20;;;19.00;72.00;;;-142.21;100.00;112049.66;5053050;28;20487;-74
2022/05/11 05:24:50;;;;;;;7.47;6.77;;;19.10;71.70;;;-142.21;100.00;112049.66;5068563;28;20460;-79
2022/05/11 05:27:20;;;;;;;7.47;6.60;;;19.20;71.70;;;-142.21;100.00;112049.66;5052629;28;20839;-76
2022/05/11 05:32:38;;;;;;;7.40;6.80;;;19.30;72.00;;;-142.21;100.00;112049.66;5053398;28;20798;-76
2022/05/11 05:35:08;;;;;;;7.40;6.70;;;19.50;73.00;;;-142.21;100.00;112049.66;5053464;28;20266;-77
2022/05/11 05:37:38;;;;;;;8.97;7.57;;;19.60;71.70;;;-142.21;100.00;112049.66;5053380;28;20463;-80
2022/05/11 05:40:07;;;;;;;8.97;6.73;;;19.70;72.30;;;-142.21;100.00;112049.66;5052546;28;20441;-79
2022/05/11 05:42:35;;;;;;;7.70;6.87;;;19.90;72.20;;;-142.21;100.00;112049.66;5053445;28;20444;-78
2022/05/11 05:45:03;;;;;;;7.70;6.53;;;20.00;72.70;;;-142.21;100.00;112049.66;5052714;28;20559;-81
2022/05/11 05:47:31;;;;;;;8.63;6.60;;;20.00;72.70;;;-142.21;100.00;112049.66;5053056;28;20448;-77
2022/05/11 05:50:00;;;;;;;8.23;6.67;;;20.20;72.50;;;-142.21;100.00;112049.66;5046520;28;20528;-78
2022/05/11 05:52:27;;;;;;;6.50;5.90;;;20.30;72.90;;;-142.21;100.00;112049.66;5052006;28;20280;-78
2022/05/11 05:54:58;;;;;;;5.60;5.10;;;20.40;72.90;;;-142.21;100.00;112049.66;5052525;28;20197;-76
2022/05/11 05:57:27;;;;;;;9.43;5.97;;;20.50;71.50;;;-142.21;100.00;112049.66;5052609;28;20566;-80
2022/05/11 05:59:55;;;;;;;6.77;5.27;;;20.60;69.40;;;-142.21;100.00;112049.66;5052999;28;20198;-80
2022/05/11 06:02:22;;;;;;;6.00;5.40;;;20.70;69.00;;;-142.21;100.00;112049.66;5052084;28;20566;-75
2022/05/11 06:04:52;;;;;;;10.13;5.23;;;20.80;70.30;;;-142.21;100.00;112049.66;5053099;28;20454;-77
2022/05/11 06:07:22;;;;;;;6.00;5.50;;;20.90;69.50;;;-142.21;100.00;112049.66;5051432;28;20228;-78
2022/05/11 06:09:51;;;;;;;6.77;5.10;;;20.90;68.90;;;-142.21;100.00;112049.66;5037021;28;20441;-79
2022/05/11 06:12:18;;;;;;;6.60;5.20;;;21.00;68.00;;;-142.21;100.00;112049.66;5052107;28;20209;-80
2022/05/11 06:14:46;;;;;;;5.60;4.77;;;21.10;68.00;;;-142.21;100.00;112049.66;5052784;28;20193;-75
2022/05/11 06:17:17;;;;;;;10.00;5.03;;;21.20;68.50;;;-142.21;100.00;112049.66;5051590;28;20293;-80
2022/05/11 06:19:44;;;;;;;5.03;4.53;;;21.30;67.60;;;-142.21;100.00;112049.66;5052745;28;20273;-78
2022/05/11 06:22:12;;;;;;;5.10;4.60;;;21.40;66.80;;;-142.21;100.00;112049.66;5050879;28;20209;-79
2022/05/11 06:24:41;;;;;;;4.73;4.23;;;21.50;66.20;;;-142.21;100.00;112049.66;5052557;28;20288;-79
2022/05/11 06:27:16;;;;;;;5.00;4.47;;;21.60;64.80;;;-142.21;100.00;112049.66;5066621;28;20285;-78
2022/05/11 06:29:50;;;;;;;5.80;4.73;;;21.70;65.30;;;-142.21;100.00;112049.66;5052342;28;20248;-79
2022/05/11 06:32:18;;;;;;;6.60;4.87;;;21.80;64.50;;;-142.21;97.48;112049.66;5050051;28;20273;-80
2022/05/11 06:34:46;;;;;;;5.27;4.33;;;21.80;62.60;;;-142.21;98.04;112049.66;5052699;28;20240;-79
2022/05/11 06:37:13;;;;;;;6.20;4.33;;;22.00;63.20;;;-142.21;96.00;112049.66;5051701;28;20237;-79
2022/05/11 06:39:42;;;;;;;5.63;5.03;;;22.10;63.50;;;-142.21;96.31;112049.66;5052182;28;20201;-78
2022/05/11 06:42:11;;;;;;;4.63;4.17;;;22.30;62.60;;;-142.21;93.19;112049.66;5051672;28;20239;-76
2022/05/11 06:44:39;;;;;;;6.77;4.37;;;24.80;58.10;;;-142.21;90.11;112049.66;5051979;28;20233;-78
2022/05/11 06:47:07;;;;;;;5.53;4.20;;;28.70;50.60;;;-142.21;87.42;112049.66;5051627;28;20280;-78
2022/05/11 06:49:35;;;;;;;4.47;4.03;;;32.10;44.40;;;-142.21;86.94;112049.66;5051777;28;20253;-76
2022/05/11 06:52:03;;;;;;;4.77;3.93;;;34.70;40.60;;;-142.21;83.81;112049.66;5052019;28;20205;-78
2022/05/11 07:00:01;;;;;;;3.80;3.40;;;38.10;34.70;;;-142.21;77.94;112049.66;5032183;28;20268;-79
2022/05/11 07:02:28;;;;;;;6.50;3.50;;;38.00;35.00;;;-142.21;80.65;112049.66;5038768;28;20256;-80
2022/05/11 07:04:56;;;;;;;5.27;4.00;;;37.90;35.90;;;-142.21;78.17;112049.66;5051653;28;20285;-79
2022/05/11 07:07:25;;;;;;;4.10;3.53;;;36.90;36.80;;;-142.21;78.17;112049.66;5051393;28;20638;-80
2022/05/11 07:09:52;;;;;;;4.60;3.60;;;35.70;37.50;;;-142.21;73.70;112049.66;5051639;28;20310;-78
2022/05/11 07:12:21;;;;;;;4.37;3.77;;;35.00;37.90;;;-142.21;76.07;112049.66;5050647;28;20232;-77
2022/05/11 07:14:52;;;;;;;4.93;3.93;;;33.70;39.00;;;-142.21;77.75;112049.66;5048771;28;20241;-79
2022/05/11 07:17:30;;;;;;;5.93;3.70;;;32.20;40.40;;;-142.21;76.87;112049.66;5046763;28;20674;-77
2022/05/11 07:19:59;;;;;;;4.53;4.13;;;31.30;42.20;;;-142.21;69.51;112049.66;5049707;28;20194;-83
2022/05/11 07:22:27;;;;;;;4.00;3.57;;;30.10;43.30;;;-142.21;68.52;112049.66;5066091;28;20207;-83
2022/05/11 07:24:55;;;;;;;4.43;3.70;;;30.20;43.70;;;-142.21;71.92;112049.66;5049980;28;20289;-81
2022/05/11 07:27:24;;;;;;;4.33;3.93;;;31.10;41.80;;;-142.21;71.91;112049.66;5043433;28;20293;-81
2022/05/11 07:29:52;;;;;;;5.07;3.90;;;30.60;42.60;;;-142.21;70.58;112049.66;5052061;28;20248;-82
2022/05/11 07:32:21;;;;;;;4.00;3.70;;;29.60;44.20;;;-142.21;73.68;112049.66;5051024;28;20199;-80
2022/05/11 07:34:48;;;;;;;4.20;3.87;;;28.70;46.00;;;-142.21;76.38;112049.66;5049743;28;20385;-77
2022/05/11 07:37:16;;;;;;;4.70;4.30;;;28.20;47.40;;;-142.21;73.42;112049.66;5055904;28;20698;-79
2022/05/11 07:39:43;;;;;;;4.67;4.23;;;27.70;47.60;;;-142.21;73.67;112049.66;5055885;28;20201;-79
2022/05/11 07:42:11;;;;;;;7.33;3.70;;;27.30;48.50;;;-142.21;73.34;112049.66;5055863;28;20233;-80
2022/05/11 07:44:40;;;;;;;3.90;3.60;;;27.00;49.20;;;-142.21;76.47;112049.66;5046070;28;20686;-78
2022/05/11 07:47:10;;;;;;;3.90;3.50;;;26.90;50.00;;;-142.21;66.92;112049.66;5055984;28;20693;-76
2022/05/11 07:49:37;;;;;;;3.60;3.30;;;26.90;49.20;;;-142.21;69.49;112049.66;5056124;28;20221;-79
2022/05/11 07:52:06;;;;;;;3.40;3.10;;;26.90;49.90;;;-142.21;70.21;112049.66;5036161;28;20601;-80
2022/05/11 07:54:33;;;;;;;4.70;3.63;;;27.00;50.10;;;-142.21;66.59;112049.66;5035369;28;20241;-75
2022/05/11 07:59:59;;;;;;;4.33;3.57;;;27.20;50.10;;;-142.21;61.41;112049.66;5055514;28;20193;-80
2022/05/11 08:02:28;;;;;;;5.57;3.57;;;27.80;48.90;;;-142.21;60.32;112049.66;5055414;28;20197;-78
2022/05/11 08:05:09;;;;;;;3.60;3.30;;;28.30;48.80;;;-142.21;53.15;112049.66;5054689;28;20205;-77
2022/05/11 08:07:46;;;;;;;4.90;3.50;;;28.00;47.80;;;-142.21;53.49;112049.66;5054450;28;20710;-76
2022/05/11 08:10:19;;;;;;;3.70;3.40;;;28.20;48.30;;;-142.21;55.39;112049.66;5055173;28;20241;-79
2022/05/11 08:12:46;;;;;;;5.50;3.93;;;28.10;47.80;;;-142.21;59.28;112049.66;5056253;28;20191;-79
2022/05/11 08:15:18;;;;;;;6.10;3.87;;;27.90;48.50;;;-142.21;61.46;112049.66;5055720;28;20293;-76
2022/05/11 08:17:46;;;;;;;3.90;3.60;;;27.70;49.30;;;-142.21;64.55;112049.66;5055487;28;20536;-77
2022/05/11 08:20:19;;;;;;;4.30;3.90;;;27.60;50.00;;;-142.21;59.11;112049.66;5055022;28;20237;-75
2022/05/11 08:22:48;;;;;;;3.63;3.17;;;27.40;48.90;;;-142.21;63.09;112049.66;5055437;28;20186;-76
2022/05/11 08:25:20;;;;;;;3.77;3.37;;;27.40;50.00;;;-142.21;58.74;112049.66;5052417;28;20215;-75
2022/05/11 08:27:48;;;;;;;4.73;3.70;;;27.40;49.60;;;-142.21;56.66;112049.66;5056334;28;20194;-80
2022/05/11 08:33:22;;;;;;;3.70;3.40;;;27.40;49.50;;;-142.21;57.28;112049.66;5055844;28;20251;-78
2022/05/11 08:35:52;;;;;;;4.00;3.60;;;27.50;49.20;;;-142.21;57.63;112049.66;5054814;28;20216;-77
2022/05/11 08:38:22;;;;;;;3.60;3.30;;;27.60;49.60;;;-142.21;49.90;112049.66;5055497;28;20289;-77
2022/05/11 08:40:58;;;;;;;3.93;3.10;;;27.70;48.50;;;-142.21;51.33;112049.66;5055624;28;20205;-79
2022/05/11 08:43:28;;;;;;;5.77;3.70;;;28.00;48.80;;;-142.21;47.04;112049.66;5054785;28;20280;-78
2022/05/11 08:46:08;;;;;;;5.80;3.50;;;28.20;48.10;;;-142.21;46.12;112049.66;5054531;28;20226;-78
2022/05/11 08:48:47;;;;;;;4.20;3.80;;;28.30;47.20;;;-142.21;44.61;112049.66;5054441;28;20240;-78
2022/05/11 08:51:27;;;;;;;4.50;3.37;;;28.30;46.20;;;-142.21;44.78;112049.66;5055037;28;20190;-79
2022/05/11 08:54:12;;;;;;;6.00;3.60;;;28.60;47.50;;;-142.21;38.91;112049.66;5054271;28;20727;-79
2022/05/11 08:56:41;;;;;;;5.30;3.17;;;29.10;46.70;;;-142.21;35.20;112049.66;5054021;28;20218;-77
2022/05/11 08:59:19;;;;;;;3.83;3.50;;;29.90;45.00;;;-142.21;36.31;112049.66;5054916;28;20555;-77
2022/05/11 09:01:54;;;;;;;3.43;3.13;;;30.50;43.60;;;-142.21;37.31;112049.66;5053076;28;20204;-77
2022/05/11 09:04:33;;;;;;;3.60;3.03;;;31.30;42.50;;;-142.21;39.55;112049.66;5053217;28;20186;-77
2022/05/11 09:07:01;;;;;;;3.40;3.10;;;32.00;42.10;;;-142.21;38.82;112049.66;5054542;28;20256;-78
2022/05/11 09:09:28;;;;;;;5.87;3.20;;;32.70;40.40;;;-142.21;39.53;112049.66;5053680;28;20333;-78
2022/05/11 09:11:57;;;;;;;4.73;3.30;;;32.30;40.80;;;-142.21;42.87;112049.66;5054050;28;20236;-78
2022/05/11 09:14:34;;;;;;;4.77;3.27;;;32.00;41.90;;;-142.21;40.14;112049.66;5053574;28;20703;-78
2022/05/11 09:17:06;;;;;;;4.43;3.50;;;31.80;40.40;;;-142.21;40.71;112049.66;5053950;28;20259;-76
2022/05/11 09:19:35;;;;;;;6.03;3.60;;;31.50;41.40;;;-142.21;40.38;112049.66;5053160;28;20227;-78
2022/05/11 09:22:17;;;;;;;6.50;3.73;;;31.20;42.20;;;-142.21;40.31;112049.66;5054122;28;20288;-79
2022/05/11 09:24:49;;;;;;;3.80;3.37;;;31.10;41.70;;;-142.21;42.70;112049.66;5044257;28;20297;-75
2022/05/11 09:27:25;;;;;;;4.37;3.80;;;31.10;43.10;;;-142.21;41.28;112049.66;5033346;28;20553;-79
2022/05/11 09:30:01;;;;;;;3.90;3.57;;;31.10;42.10;;;-142.21;41.12;112049.66;5033960;28;20621;-77
2022/05/11 09:32:42;;;;;;;4.73;3.17;;;31.00;42.30;;;-142.21;42.31;112049.66;5033630;28;20621;-75
2022/05/11 09:35:36;;;;;;;3.80;3.50;;;31.00;43.00;;;-142.21;39.96;112049.66;5033598;28;20197;-76
2022/05/11 09:38:10;;;;;;;3.30;3.10;;;31.00;41.30;;;-142.21;40.14;112049.66;5023997;28;20213;-76
2022/05/11 09:40:56;;;;;;;4.27;3.73;;;30.90;42.20;;;-142.21;40.25;112049.66;5033460;28;20190;-80
2022/05/11 09:43:36;;;;;;;6.30;3.70;;;30.90;42.10;;;-142.21;39.76;112049.66;5033550;28;20187;-79
2022/05/11 09:46:22;;;;;;;3.87;3.50;;;30.80;42.20;;;-142.21;42.64;112049.66;5033171;28;20587;-78
2022/05/11 09:49:00;;;;;;;5.20;3.80;;;30.80;43.20;;;-142.21;39.98;112049.66;5033332;28;20305;-78
2022/05/11 09:51:37;;;;;;;4.13;3.50;;;30.80;42.20;;;-142.21;38.55;112049.66;5033285;28;20686;-76
2022/05/11 09:54:29;;;;;;;3.70;3.40;;;31.00;42.20;;;-142.21;39.75;112049.66;5033314;28;20202;-76
2022/05/11 09:57:00;;;;;;;3.60;3.30;;;31.00;41.70;;;-142.21;39.64;112049.66;5032268;28;20193;-75
2022/05/11 09:59:31;;;;;;;3.93;3.57;;;31.00;42.50;;;-142.21;39.22;112049.66;5032744;28;20214;-76
2022/05/11 10:02:21;;;;;;;5.80;4.00;;;31.00;42.60;;;-142.21;38.53;112049.66;5033230;28;20187;-77
2022/05/11 10:04:58;;;;;;;4.80;3.70;;;31.20;42.30;;;-142.21;38.76;112049.66;5033310;28;20195;-77
2022/05/11 10:07:29;;;;;;;4.10;3.30;;;31.30;42.00;;;-142.21;39.44;112049.66;5032312;28;20237;-79
2022/05/11 10:10:05;;;;;;;4.63;3.37;;;31.30;42.20;;;-142.21;37.17;112049.66;5033160;28;20320;-79
2022/05/11 10:12:40;;;;;;;3.87;3.57;;;31.20;40.80;;;-142.21;37.71;112049.66;5032834;28;20273;-75
2022/05/11 10:24:11;;;;;;;6.07;3.60;;;31.50;41.50;;;-142.21;37.25;112049.66;5051011;28;20196;-76
2022/05/11 10:27:05;;;;;;;3.70;3.40;;;31.50;40.90;;;-142.21;40.25;112049.66;5044494;28;20291;-75
2022/05/11 10:29:52;;;;;;;12.47;6.20;;;31.70;41.60;;;-142.21;35.70;112049.66;5052223;28;20629;-77
2022/05/11 10:32:26;;;;;;;10.10;7.10;;;31.70;40.10;;;-142.21;36.87;112049.66;5052267;28;20692;-75
2022/05/11 10:35:07;;;;;;;4.80;3.50;;;31.70;40.40;;;-142.21;38.48;112049.66;5050904;28;20220;-75
2022/05/11 10:37:48;;;;;;;12.37;9.23;;;31.60;41.10;;;-142.21;36.85;112049.66;5052312;28;20208;-77
2022/05/11 10:40:27;;;;;;;3.70;3.40;;;31.70;41.20;;;-142.21;35.58;112049.66;5033312;28;20222;-79